»·PEaware :: AAY717 KDCA-KATL

AAY717 :: KDCA-KATL

FLIGHT INFORMATION

Flight Status: Arrived
Operator:
Allegiant Air
More flights by this operator :: More flights under this callsign
Pilot: Ty S. (2873)
Aircraft: MCDONNELL-DOUGLAS MD-88
(MD88)
More flights by this aircraft type
Origin: KDCA Ronald Reagan Washington Natl
United States
Destination: KATL Hartsfield-Jackson Atlanta
United States
More flights between these airports :: More routes between these airports
Route: BUTRZ2 FLASK DIRTY3
File this flight plan on PilotEdge
Remarks:
Altitude:
(Current/Filed)
30,000ft
Speed:
(Current/Filed)
440kts
Departed: 09-Dec-15 05:32 PM
Arrived: 09-Dec-15 07:01 PM
Distance/Time
Traveled:
475nm/1:29
Distance/Time
To Go:
Arrived

Flight Plot

Page will automatically refresh every two minutes.


Map Options




Map Legend


Flown Route
Filed Route
Departure Airport
Arrival Airport
Navaid (VOR, NDB)
Fix

Horizontal Profiles

Position Reports

Time Latitude Longitude Heading Altitude Ground
Speed
09-Dec-15 17:13 38.856374 -77.043662 162 21ft 0kts
09-Dec-15 17:14 38.856374 -77.043662 162 21ft 0kts
09-Dec-15 17:15 38.856374 -77.043662 162 21ft 0kts
09-Dec-15 17:16 38.856374 -77.043662 162 21ft 0kts
09-Dec-15 17:17 38.856374 -77.043662 162 21ft 0kts
09-Dec-15 17:18 38.856374 -77.043662 162 21ft 0kts
09-Dec-15 17:19 38.856388 -77.043668 162 21ft 1kts
09-Dec-15 17:20 38.856854 -77.043289 56 21ft 5kts
09-Dec-15 17:21 38.856890 -77.043207 60 21ft 0kts
09-Dec-15 17:22 38.856890 -77.043207 60 21ft 0kts
09-Dec-15 17:23 38.857242 -77.041114 124 21ft 5kts
09-Dec-15 17:24 38.855521 -77.039591 170 21ft 11kts
09-Dec-15 17:25 38.851537 -77.039164 175 21ft 21kts
09-Dec-15 17:26 38.847484 -77.038791 171 21ft 10kts
09-Dec-15 17:27 38.844308 -77.038429 175 21ft 10kts
09-Dec-15 17:28 38.842182 -77.037783 125 21ft 8kts
09-Dec-15 17:29 38.848764 -77.037471 355 21ft 111kts
09-Dec-15 17:30 38.887550 -77.056315 330 1350ft 180kts
09-Dec-15 17:31 38.923737 -77.113383 326 2513ft 243kts
09-Dec-15 17:32 38.978883 -77.172152 306 5125ft 252kts
09-Dec-15 17:33 38.985589 -77.260456 260 7675ft 253kts
09-Dec-15 17:34 38.935000 -77.322185 219 10121ft 256kts
09-Dec-15 17:35 38.870449 -77.381143 213 11163ft 305kts
09-Dec-15 17:36 38.801542 -77.443504 214 13411ft 308kts
09-Dec-15 17:37 38.731343 -77.508039 224 15331ft 316kts
09-Dec-15 17:38 38.671343 -77.591876 225 17120ft 323kts
09-Dec-15 17:39 38.611109 -77.676444 225 18799ft 328kts
09-Dec-15 17:40 38.549149 -77.763210 225 20396ft 333kts
09-Dec-15 17:41 38.486410 -77.851254 225 21866ft 339kts
09-Dec-15 17:42 38.425927 -77.945132 231 23193ft 347kts
09-Dec-15 17:43 38.369905 -78.045978 231 24386ft 353kts
09-Dec-15 17:44 38.312669 -78.148839 231 25465ft 358kts
09-Dec-15 17:45 38.255114 -78.251963 231 26611ft 357kts
09-Dec-15 17:46 38.207207 -78.337543 231 27520ft 354kts
09-Dec-15 17:47 38.149232 -78.437972 229 28456ft 351kts
09-Dec-15 17:48 38.090335 -78.536450 229 29209ft 351kts
09-Dec-15 17:49 38.031201 -78.634898 230 29795ft 351kts
09-Dec-15 17:50 37.971817 -78.734045 233 30034ft 363kts
09-Dec-15 17:51 37.909244 -78.837862 234 30039ft 381kts
09-Dec-15 17:52 37.844658 -78.944551 234 30048ft 393kts
09-Dec-15 17:53 37.777783 -79.054602 234 30053ft 396kts
09-Dec-15 17:54 37.710637 -79.164733 234 30054ft 396kts
09-Dec-15 17:55 37.644314 -79.275655 234 30048ft 396kts
09-Dec-15 17:56 37.578210 -79.386907 234 30051ft 396kts
09-Dec-15 17:57 37.514342 -79.494050 234 30046ft 397kts
09-Dec-15 17:58 37.447723 -79.605440 234 30045ft 399kts
09-Dec-15 17:59 37.381787 -79.715835 234 30057ft 400kts
09-Dec-15 18:00 37.315755 -79.825585 234 30055ft 400kts
09-Dec-15 18:01 37.248447 -79.937013 234 30054ft 400kts
09-Dec-15 18:02 37.181283 -80.047832 234 30055ft 401kts
09-Dec-15 18:03 37.113629 -80.159089 234 30060ft 401kts
09-Dec-15 18:04 37.046143 -80.269705 234 30059ft 401kts
09-Dec-15 18:05 36.973361 -80.375698 229 30059ft 403kts
09-Dec-15 18:06 36.897671 -80.477090 229 30050ft 402kts
09-Dec-15 18:07 36.823322 -80.576347 229 30034ft 402kts
09-Dec-15 18:08 36.749209 -80.675205 229 30034ft 403kts
09-Dec-15 18:09 36.672787 -80.776880 228 30040ft 402kts
09-Dec-15 18:10 36.596121 -80.878288 228 30023ft 403kts
09-Dec-15 18:11 36.518786 -80.980131 230 30040ft 406kts
09-Dec-15 18:12 36.440611 -81.082904 233 30090ft 416kts
09-Dec-15 18:13 36.359864 -81.188830 233 30098ft 430kts
09-Dec-15 18:14 36.278261 -81.295394 233 30075ft 436kts
09-Dec-15 18:15 36.194929 -81.403866 233 30084ft 436kts
09-Dec-15 18:16 36.111254 -81.512431 233 30074ft 436kts
09-Dec-15 18:17 36.027910 -81.620206 233 30085ft 434kts
09-Dec-15 18:18 35.948705 -81.722767 233 30108ft 434kts
09-Dec-15 18:19 35.867309 -81.827393 233 30099ft 434kts
09-Dec-15 18:20 35.783778 -81.934422 232 30089ft 433kts
09-Dec-15 18:21 35.700258 -82.041053 232 30077ft 433kts
09-Dec-15 18:22 35.616355 -82.147771 232 30069ft 434kts
09-Dec-15 18:23 35.532526 -82.254136 231 30064ft 435kts
09-Dec-15 18:24 35.449329 -82.359319 231 30061ft 435kts
09-Dec-15 18:25 35.365099 -82.465483 231 30061ft 435kts
09-Dec-15 18:26 35.280972 -82.571183 231 30060ft 435kts
09-Dec-15 18:27 35.197573 -82.675854 231 30068ft 436kts
09-Dec-15 18:28 35.112765 -82.781966 231 30072ft 435kts
09-Dec-15 18:29 35.028151 -82.887254 231 30079ft 435kts
09-Dec-15 18:30 34.943259 -82.992553 231 30083ft 436kts
09-Dec-15 18:31 34.872462 -83.080118 231 30078ft 436kts
09-Dec-15 18:32 34.789451 -83.182463 231 29513ft 414kts
09-Dec-15 18:33 34.708910 -83.281557 231 28157ft 413kts
09-Dec-15 18:34 34.619245 -83.366954 223 26387ft 409kts
09-Dec-15 18:35 34.529360 -83.448213 223 24442ft 400kts
09-Dec-15 18:36 34.441240 -83.527646 224 22422ft 390kts
09-Dec-15 18:37 34.356298 -83.604018 223 20419ft 373kts
09-Dec-15 18:38 34.276504 -83.675694 222 18539ft 359kts
09-Dec-15 18:39 34.197843 -83.745944 222 16712ft 346kts
09-Dec-15 18:40 34.121887 -83.813485 221 14921ft 335kts
09-Dec-15 18:41 34.051117 -83.882366 226 13635ft 325kts
09-Dec-15 18:42 33.984835 -83.953364 225 12143ft 316kts
09-Dec-15 18:43 33.911059 -84.010912 215 10664ft 320kts
09-Dec-15 18:44 33.849477 -84.054827 214 9453ft 321kts
09-Dec-15 18:45 33.777908 -84.105712 213 8103ft 283kts
09-Dec-15 18:46 33.735023 -84.172772 262 7197ft 262kts
09-Dec-15 18:47 33.733023 -84.258152 267 6186ft 253kts
09-Dec-15 18:48 33.732939 -84.337352 267 5267ft 221kts
09-Dec-15 18:49 33.732868 -84.410486 267 4266ft 220kts
09-Dec-15 18:50 33.732745 -84.482920 271 3998ft 221kts
09-Dec-15 18:51 33.732810 -84.557278 271 3540ft 216kts
09-Dec-15 18:52 33.728816 -84.621158 228 3283ft 190kts
09-Dec-15 18:53 33.678684 -84.619070 167 3002ft 189kts
09-Dec-15 18:54 33.645730 -84.582914 84 2937ft 151kts
09-Dec-15 18:55 33.647522 -84.533095 87 2282ft 153kts
09-Dec-15 18:56 33.647123 -84.480530 88 1945ft 156kts
09-Dec-15 18:57 33.646773 -84.426934 90 1031ft 119kts
09-Dec-15 18:58 33.645728 -84.415588 198 1031ft 10kts
09-Dec-15 18:59 33.645428 -84.419474 269 1031ft 14kts
09-Dec-15 19:00 33.645426 -84.424335 271 1031ft 15kts
09-Dec-15 19:01 33.643813 -84.428064 181 1031ft 14kts
09-Dec-15 19:02 33.642269 -84.428624 266 1031ft 0kts
09-Dec-15 19:03 33.642269 -84.428624 266 1031ft 0kts
09-Dec-15 19:04 33.642269 -84.428624 266 1031ft 0kts
09-Dec-15 19:05 33.646724 -84.449130 89 1258ft 165kts
09-Dec-15 19:06 33.646764 -84.434792 91 1032ft 157kts

Navigation Log

Ident Type
Flight plan parsing failed, navigation log unavailable